sensor_id;sensor_type;location;lat;lon;timestamp;P1;durP1;ratioP1;P2;durP2;ratioP2
17727;SDS011;8984;49.268;12.302;2023-08-20T00:00:19;10.25;;;7.55;;
17727;SDS011;8984;49.268;12.302;2023-08-20T00:02:48;9.77;;;8.07;;
17727;SDS011;8984;49.268;12.302;2023-08-20T00:05:24;9.95;;;7.90;;
17727;SDS011;8984;49.268;12.302;2023-08-20T00:07:54;7.50;;;6.80;;
17727;SDS011;8984;49.268;12.302;2023-08-20T00:10:25;7.60;;;6.30;;
17727;SDS011;8984;49.268;12.302;2023-08-20T00:12:59;8.45;;;5.93;;
17727;SDS011;8984;49.268;12.302;2023-08-20T00:18:16;8.85;;;5.82;;
17727;SDS011;8984;49.268;12.302;2023-08-20T00:20:52;8.07;;;6.35;;
17727;SDS011;8984;49.268;12.302;2023-08-20T00:31:52;9.45;;;5.95;;
17727;SDS011;8984;49.268;12.302;2023-08-20T00:34:30;8.98;;;6.32;;
17727;SDS011;8984;49.268;12.302;2023-08-20T00:37:00;9.38;;;6.20;;
17727;SDS011;8984;49.268;12.302;2023-08-20T00:39:28;9.45;;;6.55;;
17727;SDS011;8984;49.268;12.302;2023-08-20T00:42:07;7.40;;;6.60;;
17727;SDS011;8984;49.268;12.302;2023-08-20T00:44:36;8.68;;;6.20;;
17727;SDS011;8984;49.268;12.302;2023-08-20T00:47:15;6.72;;;6.00;;
17727;SDS011;8984;49.268;12.302;2023-08-20T00:49:49;6.80;;;6.07;;
17727;SDS011;8984;49.268;12.302;2023-08-20T00:52:19;7.43;;;6.07;;
17727;SDS011;8984;49.268;12.302;2023-08-20T00:54:50;11.00;;;6.72;;
17727;SDS011;8984;49.268;12.302;2023-08-20T00:57:27;9.70;;;6.30;;
17727;SDS011;8984;49.268;12.302;2023-08-20T01:00:03;6.95;;;5.55;;
17727;SDS011;8984;49.268;12.302;2023-08-20T01:02:38;7.13;;;6.47;;
17727;SDS011;8984;49.268;12.302;2023-08-20T01:05:12;8.48;;;6.38;;
17727;SDS011;8984;49.268;12.302;2023-08-20T01:07:47;8.68;;;6.68;;
17727;SDS011;8984;49.268;12.302;2023-08-20T01:10:29;7.97;;;6.07;;
17727;SDS011;8984;49.268;12.302;2023-08-20T01:13:06;9.57;;;6.25;;
17727;SDS011;8984;49.268;12.302;2023-08-20T01:15:39;7.68;;;6.30;;
17727;SDS011;8984;49.268;12.302;2023-08-20T01:18:27;7.57;;;6.65;;
17727;SDS011;8984;49.268;12.302;2023-08-20T01:21:02;11.68;;;7.28;;
17727;SDS011;8984;49.268;12.302;2023-08-20T01:23:56;11.90;;;7.88;;
17727;SDS011;8984;49.268;12.302;2023-08-20T01:26:43;8.65;;;6.88;;
17727;SDS011;8984;49.268;12.302;2023-08-20T01:29:25;9.80;;;6.82;;
17727;SDS011;8984;49.268;12.302;2023-08-20T01:32:06;8.68;;;6.35;;
17727;SDS011;8984;49.268;12.302;2023-08-20T01:34:37;7.40;;;6.20;;
17727;SDS011;8984;49.268;12.302;2023-08-20T01:37:15;8.60;;;6.55;;
17727;SDS011;8984;49.268;12.302;2023-08-20T01:39:48;7.25;;;6.53;;
17727;SDS011;8984;49.268;12.302;2023-08-20T01:42:18;8.15;;;6.30;;
17727;SDS011;8984;49.268;12.302;2023-08-20T01:44:53;6.35;;;5.75;;
17727;SDS011;8984;49.268;12.302;2023-08-20T01:47:26;7.32;;;6.63;;
17727;SDS011;8984;49.268;12.302;2023-08-20T01:50:01;7.60;;;6.18;;
17727;SDS011;8984;49.268;12.302;2023-08-20T01:52:31;11.52;;;6.75;;
17727;SDS011;8984;49.268;12.302;2023-08-20T01:55:00;7.35;;;6.05;;
17727;SDS011;8984;49.268;12.302;2023-08-20T01:57:39;10.80;;;6.38;;
17727;SDS011;8984;49.268;12.302;2023-08-20T02:00:14;12.40;;;7.05;;
17727;SDS011;8984;49.268;12.302;2023-08-20T02:02:44;7.32;;;6.63;;
17727;SDS011;8984;49.268;12.302;2023-08-20T02:05:13;7.65;;;6.45;;
17727;SDS011;8984;49.268;12.302;2023-08-20T02:08:05;7.20;;;6.45;;
17727;SDS011;8984;49.268;12.302;2023-08-20T02:10:45;7.10;;;6.45;;
17727;SDS011;8984;49.268;12.302;2023-08-20T02:13:15;10.18;;;6.65;;
17727;SDS011;8984;49.268;12.302;2023-08-20T02:15:47;6.63;;;5.97;;
17727;SDS011;8984;49.268;12.302;2023-08-20T02:18:29;7.15;;;6.45;;
17727;SDS011;8984;49.268;12.302;2023-08-20T02:20:58;7.40;;;6.70;;
17727;SDS011;8984;49.268;12.302;2023-08-20T02:23:30;7.10;;;6.40;;
17727;SDS011;8984;49.268;12.302;2023-08-20T02:25:58;6.85;;;6.25;;
17727;SDS011;8984;49.268;12.302;2023-08-20T02:28:28;7.07;;;6.25;;
17727;SDS011;8984;49.268;12.302;2023-08-20T02:31:24;7.55;;;6.25;;
17727;SDS011;8984;49.268;12.302;2023-08-20T02:34:02;6.78;;;6.07;;
17727;SDS011;8984;49.268;12.302;2023-08-20T02:36:59;6.65;;;5.93;;
17727;SDS011;8984;49.268;12.302;2023-08-20T02:39:28;7.95;;;6.30;;
17727;SDS011;8984;49.268;12.302;2023-08-20T02:42:04;7.47;;;6.78;;
17727;SDS011;8984;49.268;12.302;2023-08-20T02:44:36;8.85;;;6.63;;
17727;SDS011;8984;49.268;12.302;2023-08-20T02:47:12;7.43;;;6.05;;
17727;SDS011;8984;49.268;12.302;2023-08-20T02:49:42;7.57;;;6.70;;
17727;SDS011;8984;49.268;12.302;2023-08-20T02:52:21;6.60;;;5.90;;
17727;SDS011;8984;49.268;12.302;2023-08-20T02:54:49;7.20;;;6.50;;
17727;SDS011;8984;49.268;12.302;2023-08-20T02:57:34;7.70;;;6.93;;
17727;SDS011;8984;49.268;12.302;2023-08-20T03:00:36;6.72;;;6.13;;
17727;SDS011;8984;49.268;12.302;2023-08-20T03:03:13;6.93;;;6.00;;
17727;SDS011;8984;49.268;12.302;2023-08-20T03:05:45;5.93;;;5.32;;
17727;SDS011;8984;49.268;12.302;2023-08-20T03:08:21;8.45;;;6.20;;
17727;SDS011;8984;49.268;12.302;2023-08-20T03:10:52;6.45;;;5.85;;
17727;SDS011;8984;49.268;12.302;2023-08-20T03:13:40;7.30;;;6.60;;
17727;SDS011;8984;49.268;12.302;2023-08-20T03:16:30;7.75;;;5.90;;
17727;SDS011;8984;49.268;12.302;2023-08-20T03:19:04;8.30;;;6.88;;
17727;SDS011;8984;49.268;12.302;2023-08-20T03:21:38;8.40;;;6.25;;
17727;SDS011;8984;49.268;12.302;2023-08-20T03:24:08;7.53;;;6.35;;
17727;SDS011;8984;49.268;12.302;2023-08-20T03:26:36;7.75;;;6.95;;
17727;SDS011;8984;49.268;12.302;2023-08-20T03:29:04;8.30;;;6.60;;
17727;SDS011;8984;49.268;12.302;2023-08-20T03:31:35;7.10;;;5.95;;
17727;SDS011;8984;49.268;12.302;2023-08-20T03:34:18;8.00;;;6.80;;
17727;SDS011;8984;49.268;12.302;2023-08-20T03:36:47;7.25;;;6.55;;
17727;SDS011;8984;49.268;12.302;2023-08-20T03:39:24;8.00;;;7.20;;
17727;SDS011;8984;49.268;12.302;2023-08-20T03:41:59;7.72;;;6.82;;
17727;SDS011;8984;49.268;12.302;2023-08-20T03:44:28;7.22;;;6.53;;
17727;SDS011;8984;49.268;12.302;2023-08-20T03:47:02;7.70;;;6.90;;
17727;SDS011;8984;49.268;12.302;2023-08-20T03:49:37;7.68;;;6.97;;
17727;SDS011;8984;49.268;12.302;2023-08-20T03:52:26;7.68;;;5.95;;
17727;SDS011;8984;49.268;12.302;2023-08-20T03:54:56;7.72;;;6.20;;
17727;SDS011;8984;49.268;12.302;2023-08-20T03:57:24;9.02;;;7.03;;
17727;SDS011;8984;49.268;12.302;2023-08-20T03:59:53;8.02;;;6.82;;
17727;SDS011;8984;49.268;12.302;2023-08-20T04:02:26;10.90;;;6.97;;
17727;SDS011;8984;49.268;12.302;2023-08-20T04:04:58;7.25;;;6.55;;
17727;SDS011;8984;49.268;12.302;2023-08-20T04:07:40;8.35;;;6.70;;
17727;SDS011;8984;49.268;12.302;2023-08-20T04:10:07;7.07;;;6.38;;
17727;SDS011;8984;49.268;12.302;2023-08-20T04:12:45;8.60;;;6.45;;
17727;SDS011;8984;49.268;12.302;2023-08-20T04:15:15;7.50;;;6.78;;
17727;SDS011;8984;49.268;12.302;2023-08-20T04:18:04;9.50;;;6.85;;
17727;SDS011;8984;49.268;12.302;2023-08-20T04:20:41;8.25;;;6.90;;
17727;SDS011;8984;49.268;12.302;2023-08-20T04:23:10;9.70;;;6.43;;
17727;SDS011;8984;49.268;12.302;2023-08-20T04:25:48;9.82;;;7.03;;
17727;SDS011;8984;49.268;12.302;2023-08-20T04:28:17;7.28;;;6.18;;
17727;SDS011;8984;49.268;12.302;2023-08-20T04:30:47;9.52;;;6.95;;
17727;SDS011;8984;49.268;12.302;2023-08-20T04:33:19;8.05;;;6.57;;
17727;SDS011;8984;49.268;12.302;2023-08-20T04:35:52;9.85;;;7.03;;
17727;SDS011;8984;49.268;12.302;2023-08-20T04:38:22;6.68;;;6.07;;
17727;SDS011;8984;49.268;12.302;2023-08-20T04:40:53;8.00;;;6.72;;
17727;SDS011;8984;49.268;12.302;2023-08-20T04:43:26;9.65;;;7.05;;
17727;SDS011;8984;49.268;12.302;2023-08-20T04:45:55;7.32;;;6.40;;
17727;SDS011;8984;49.268;12.302;2023-08-20T04:48:23;8.80;;;6.47;;
17727;SDS011;8984;49.268;12.302;2023-08-20T04:50:56;8.68;;;6.88;;
17727;SDS011;8984;49.268;12.302;2023-08-20T04:53:25;6.85;;;5.90;;
17727;SDS011;8984;49.268;12.302;2023-08-20T04:55:53;8.48;;;6.22;;
17727;SDS011;8984;49.268;12.302;2023-08-20T04:58:26;7.93;;;5.90;;
17727;SDS011;8984;49.268;12.302;2023-08-20T05:00:58;8.68;;;5.85;;
17727;SDS011;8984;49.268;12.302;2023-08-20T05:03:41;9.07;;;6.20;;
17727;SDS011;8984;49.268;12.302;2023-08-20T05:06:10;7.35;;;5.68;;
17727;SDS011;8984;49.268;12.302;2023-08-20T05:08:42;9.18;;;5.72;;
17727;SDS011;8984;49.268;12.302;2023-08-20T05:11:14;8.38;;;6.13;;
17727;SDS011;8984;49.268;12.302;2023-08-20T05:13:44;7.55;;;5.72;;
17727;SDS011;8984;49.268;12.302;2023-08-20T05:16:14;9.13;;;6.35;;
17727;SDS011;8984;49.268;12.302;2023-08-20T05:18:45;7.88;;;5.57;;
17727;SDS011;8984;49.268;12.302;2023-08-20T05:21:15;9.65;;;5.82;;
17727;SDS011;8984;49.268;12.302;2023-08-20T05:23:42;7.32;;;5.82;;
17727;SDS011;8984;49.268;12.302;2023-08-20T05:26:13;7.53;;;6.05;;
17727;SDS011;8984;49.268;12.302;2023-08-20T05:28:46;6.90;;;5.43;;
17727;SDS011;8984;49.268;12.302;2023-08-20T05:31:16;6.53;;;5.55;;
17727;SDS011;8984;49.268;12.302;2023-08-20T05:33:43;9.18;;;5.78;;
17727;SDS011;8984;49.268;12.302;2023-08-20T05:38:59;10.00;;;6.22;;
17727;SDS011;8984;49.268;12.302;2023-08-20T05:41:27;9.43;;;6.05;;
17727;SDS011;8984;49.268;12.302;2023-08-20T05:43:54;6.82;;;5.95;;
17727;SDS011;8984;49.268;12.302;2023-08-20T05:46:21;12.02;;;6.15;;
17727;SDS011;8984;49.268;12.302;2023-08-20T05:48:50;7.85;;;6.10;;
17727;SDS011;8984;49.268;12.302;2023-08-20T05:51:28;6.53;;;5.70;;
17727;SDS011;8984;49.268;12.302;2023-08-20T05:53:59;8.20;;;6.38;;
17727;SDS011;8984;49.268;12.302;2023-08-20T05:56:29;8.48;;;6.40;;
17727;SDS011;8984;49.268;12.302;2023-08-20T05:59:04;7.75;;;5.90;;
17727;SDS011;8984;49.268;12.302;2023-08-20T06:01:32;11.00;;;6.97;;
17727;SDS011;8984;49.268;12.302;2023-08-20T06:04:08;9.25;;;6.75;;
17727;SDS011;8984;49.268;12.302;2023-08-20T06:07:00;7.63;;;6.25;;
17727;SDS011;8984;49.268;12.302;2023-08-20T06:12:15;10.82;;;6.88;;
17727;SDS011;8984;49.268;12.302;2023-08-20T06:14:48;8.27;;;6.15;;
17727;SDS011;8984;49.268;12.302;2023-08-20T06:17:22;9.63;;;6.63;;
17727;SDS011;8984;49.268;12.302;2023-08-20T06:19:50;7.28;;;6.57;;
17727;SDS011;8984;49.268;12.302;2023-08-20T06:22:20;9.68;;;7.07;;
17727;SDS011;8984;49.268;12.302;2023-08-20T06:24:56;8.90;;;6.82;;
17727;SDS011;8984;49.268;12.302;2023-08-20T06:27:29;7.35;;;6.18;;
17727;SDS011;8984;49.268;12.302;2023-08-20T06:29:58;6.40;;;5.68;;
17727;SDS011;8984;49.268;12.302;2023-08-20T06:32:33;9.18;;;6.55;;
17727;SDS011;8984;49.268;12.302;2023-08-20T06:35:02;7.03;;;6.30;;
17727;SDS011;8984;49.268;12.302;2023-08-20T06:37:29;9.57;;;6.43;;
17727;SDS011;8984;49.268;12.302;2023-08-20T06:39:59;7.68;;;5.68;;
17727;SDS011;8984;49.268;12.302;2023-08-20T06:42:28;7.43;;;5.95;;
17727;SDS011;8984;49.268;12.302;2023-08-20T06:45:00;6.97;;;5.65;;
17727;SDS011;8984;49.268;12.302;2023-08-20T06:47:47;6.93;;;5.25;;
17727;SDS011;8984;49.268;12.302;2023-08-20T06:50:26;6.20;;;5.60;;
17727;SDS011;8984;49.268;12.302;2023-08-20T06:52:53;7.32;;;5.15;;
17727;SDS011;8984;49.268;12.302;2023-08-20T06:55:29;5.43;;;4.72;;
17727;SDS011;8984;49.268;12.302;2023-08-20T06:58:04;9.40;;;5.38;;
17727;SDS011;8984;49.268;12.302;2023-08-20T07:00:39;7.05;;;5.15;;
17727;SDS011;8984;49.268;12.302;2023-08-20T07:03:18;8.32;;;4.85;;
17727;SDS011;8984;49.268;12.302;2023-08-20T07:06:02;6.35;;;5.30;;
17727;SDS011;8984;49.268;12.302;2023-08-20T07:08:34;5.57;;;4.90;;
17727;SDS011;8984;49.268;12.302;2023-08-20T07:11:05;5.07;;;4.47;;
17727;SDS011;8984;49.268;12.302;2023-08-20T07:13:38;5.65;;;4.35;;
17727;SDS011;8984;49.268;12.302;2023-08-20T07:16:09;7.10;;;4.90;;
17727;SDS011;8984;49.268;12.302;2023-08-20T07:18:51;7.15;;;4.90;;
17727;SDS011;8984;49.268;12.302;2023-08-20T07:21:21;8.73;;;5.18;;
17727;SDS011;8984;49.268;12.302;2023-08-20T07:23:51;6.25;;;4.82;;
17727;SDS011;8984;49.268;12.302;2023-08-20T07:26:24;6.78;;;5.10;;
17727;SDS011;8984;49.268;12.302;2023-08-20T07:28:55;9.38;;;5.18;;
17727;SDS011;8984;49.268;12.302;2023-08-20T07:31:31;6.03;;;5.20;;
17727;SDS011;8984;49.268;12.302;2023-08-20T07:34:09;6.85;;;5.35;;
17727;SDS011;8984;49.268;12.302;2023-08-20T07:36:39;5.00;;;4.50;;
17727;SDS011;8984;49.268;12.302;2023-08-20T07:39:07;6.65;;;4.57;;
17727;SDS011;8984;49.268;12.302;2023-08-20T07:41:38;5.18;;;4.50;;
17727;SDS011;8984;49.268;12.302;2023-08-20T07:44:09;5.38;;;4.88;;
17727;SDS011;8984;49.268;12.302;2023-08-20T07:46:37;5.20;;;4.43;;
17727;SDS011;8984;49.268;12.302;2023-08-20T07:49:08;5.28;;;4.78;;
17727;SDS011;8984;49.268;12.302;2023-08-20T07:51:53;7.32;;;4.93;;
17727;SDS011;8984;49.268;12.302;2023-08-20T07:54:21;5.05;;;4.15;;
17727;SDS011;8984;49.268;12.302;2023-08-20T07:56:59;5.05;;;4.55;;
17727;SDS011;8984;49.268;12.302;2023-08-20T07:59:27;7.65;;;4.50;;
17727;SDS011;8984;49.268;12.302;2023-08-20T08:01:57;5.18;;;4.68;;
17727;SDS011;8984;49.268;12.302;2023-08-20T08:04:27;7.88;;;4.38;;
17727;SDS011;8984;49.268;12.302;2023-08-20T08:07:00;5.05;;;4.55;;
17727;SDS011;8984;49.268;12.302;2023-08-20T08:09:34;5.00;;;4.50;;
17727;SDS011;8984;49.268;12.302;2023-08-20T08:12:05;6.03;;;5.05;;
17727;SDS011;8984;49.268;12.302;2023-08-20T08:14:33;5.65;;;4.65;;
17727;SDS011;8984;49.268;12.302;2023-08-20T08:17:18;6.85;;;5.10;;
17727;SDS011;8984;49.268;12.302;2023-08-20T08:19:57;6.72;;;3.90;;
17727;SDS011;8984;49.268;12.302;2023-08-20T08:22:24;7.80;;;4.50;;
17727;SDS011;8984;49.268;12.302;2023-08-20T08:25:06;6.50;;;4.40;;
17727;SDS011;8984;49.268;12.302;2023-08-20T08:27:47;4.95;;;3.63;;
17727;SDS011;8984;49.268;12.302;2023-08-20T08:30:14;6.13;;;3.67;;
17727;SDS011;8984;49.268;12.302;2023-08-20T08:35:28;4.75;;;4.25;;
17727;SDS011;8984;49.268;12.302;2023-08-20T08:37:58;4.93;;;3.80;;
17727;SDS011;8984;49.268;12.302;2023-08-20T08:40:33;4.30;;;3.90;;
17727;SDS011;8984;49.268;12.302;2023-08-20T08:43:04;4.55;;;4.15;;
17727;SDS011;8984;49.268;12.302;2023-08-20T08:45:41;6.40;;;4.32;;
17727;SDS011;8984;49.268;12.302;2023-08-20T08:48:12;4.45;;;3.85;;
17727;SDS011;8984;49.268;12.302;2023-08-20T08:50:43;4.35;;;3.88;;
17727;SDS011;8984;49.268;12.302;2023-08-20T08:53:22;4.50;;;4.00;;
17727;SDS011;8984;49.268;12.302;2023-08-20T08:55:55;5.40;;;3.38;;
17727;SDS011;8984;49.268;12.302;2023-08-20T08:58:26;6.93;;;3.67;;
17727;SDS011;8984;49.268;12.302;2023-08-20T09:00:53;4.80;;;3.60;;
17727;SDS011;8984;49.268;12.302;2023-08-20T09:03:26;6.50;;;3.20;;
17727;SDS011;8984;49.268;12.302;2023-08-20T09:06:07;3.55;;;3.25;;
17727;SDS011;8984;49.268;12.302;2023-08-20T09:08:43;7.18;;;4.10;;
17727;SDS011;8984;49.268;12.302;2023-08-20T09:11:15;4.10;;;3.70;;
17727;SDS011;8984;49.268;12.302;2023-08-20T09:13:50;4.28;;;3.10;;
17727;SDS011;8984;49.268;12.302;2023-08-20T09:16:23;3.40;;;3.08;;
17727;SDS011;8984;49.268;12.302;2023-08-20T09:18:58;3.42;;;3.10;;
17727;SDS011;8984;49.268;12.302;2023-08-20T09:21:27;4.20;;;2.90;;
17727;SDS011;8984;49.268;12.302;2023-08-20T09:24:00;4.22;;;3.50;;
17727;SDS011;8984;49.268;12.302;2023-08-20T09:26:35;3.65;;;3.25;;
17727;SDS011;8984;49.268;12.302;2023-08-20T09:29:09;4.47;;;3.10;;
17727;SDS011;8984;49.268;12.302;2023-08-20T09:31:41;3.30;;;3.00;;
17727;SDS011;8984;49.268;12.302;2023-08-20T09:34:17;4.20;;;3.47;;
17727;SDS011;8984;49.268;12.302;2023-08-20T09:36:52;3.60;;;3.10;;
17727;SDS011;8984;49.268;12.302;2023-08-20T09:39:22;3.97;;;3.58;;
17727;SDS011;8984;49.268;12.302;2023-08-20T09:41:52;4.90;;;3.20;;
17727;SDS011;8984;49.268;12.302;2023-08-20T09:44:28;4.30;;;3.65;;
17727;SDS011;8984;49.268;12.302;2023-08-20T09:47:06;3.85;;;3.45;;
17727;SDS011;8984;49.268;12.302;2023-08-20T09:49:38;4.57;;;3.55;;
17727;SDS011;8984;49.268;12.302;2023-08-20T09:52:07;4.72;;;3.45;;
17727;SDS011;8984;49.268;12.302;2023-08-20T09:54:50;3.58;;;3.28;;
17727;SDS011;8984;49.268;12.302;2023-08-20T09:57:26;4.30;;;3.38;;
17727;SDS011;8984;49.268;12.302;2023-08-20T10:00:18;6.93;;;3.92;;
17727;SDS011;8984;49.268;12.302;2023-08-20T10:05:32;3.88;;;3.47;;
17727;SDS011;8984;49.268;12.302;2023-08-20T10:08:00;4.20;;;3.47;;
17727;SDS011;8984;49.268;12.302;2023-08-20T10:10:29;4.25;;;3.40;;
17727;SDS011;8984;49.268;12.302;2023-08-20T10:13:13;5.00;;;3.67;;
17727;SDS011;8984;49.268;12.302;2023-08-20T10:15:46;4.28;;;3.67;;
17727;SDS011;8984;49.268;12.302;2023-08-20T10:18:19;5.70;;;3.25;;
17727;SDS011;8984;49.268;12.302;2023-08-20T10:20:49;4.85;;;3.95;;
17727;SDS011;8984;49.268;12.302;2023-08-20T10:23:24;5.13;;;3.08;;
17727;SDS011;8984;49.268;12.302;2023-08-20T10:25:56;5.75;;;3.50;;
17727;SDS011;8984;49.268;12.302;2023-08-20T10:28:34;4.88;;;3.38;;
17727;SDS011;8984;49.268;12.302;2023-08-20T10:31:09;3.67;;;3.30;;
17727;SDS011;8984;49.268;12.302;2023-08-20T10:33:47;4.57;;;3.60;;
17727;SDS011;8984;49.268;12.302;2023-08-20T10:36:19;3.85;;;3.50;;
17727;SDS011;8984;49.268;12.302;2023-08-20T10:38:56;5.47;;;3.22;;
17727;SDS011;8984;49.268;12.302;2023-08-20T10:41:25;3.90;;;3.20;;
17727;SDS011;8984;49.268;12.302;2023-08-20T10:43:57;5.15;;;3.30;;
17727;SDS011;8984;49.268;12.302;2023-08-20T10:49:19;3.92;;;3.53;;
17727;SDS011;8984;49.268;12.302;2023-08-20T10:51:48;3.80;;;3.20;;
17727;SDS011;8984;49.268;12.302;2023-08-20T10:54:18;4.05;;;3.20;;
17727;SDS011;8984;49.268;12.302;2023-08-20T10:57:00;3.72;;;3.30;;
17727;SDS011;8984;49.268;12.302;2023-08-20T10:59:32;5.20;;;3.20;;
17727;SDS011;8984;49.268;12.302;2023-08-20T11:02:10;6.22;;;2.90;;
17727;SDS011;8984;49.268;12.302;2023-08-20T11:04:41;4.25;;;3.58;;
17727;SDS011;8984;49.268;12.302;2023-08-20T11:07:16;3.83;;;2.85;;
17727;SDS011;8984;49.268;12.302;2023-08-20T11:09:46;5.55;;;3.47;;
17727;SDS011;8984;49.268;12.302;2023-08-20T11:12:21;3.40;;;3.10;;
17727;SDS011;8984;49.268;12.302;2023-08-20T11:14:51;4.20;;;3.40;;
17727;SDS011;8984;49.268;12.302;2023-08-20T11:17:19;4.65;;;3.70;;
17727;SDS011;8984;49.268;12.302;2023-08-20T11:19:49;3.22;;;2.92;;
17727;SDS011;8984;49.268;12.302;2023-08-20T11:22:18;3.72;;;2.80;;
17727;SDS011;8984;49.268;12.302;2023-08-20T11:24:48;6.40;;;3.28;;
17727;SDS011;8984;49.268;12.302;2023-08-20T11:27:18;5.50;;;3.35;;
17727;SDS011;8984;49.268;12.302;2023-08-20T11:29:54;5.47;;;3.30;;
17727;SDS011;8984;49.268;12.302;2023-08-20T11:32:31;4.75;;;3.38;;
17727;SDS011;8984;49.268;12.302;2023-08-20T11:35:08;4.18;;;3.33;;
17727;SDS011;8984;49.268;12.302;2023-08-20T11:37:37;5.20;;;3.40;;
17727;SDS011;8984;49.268;12.302;2023-08-20T11:40:07;3.13;;;2.83;;
17727;SDS011;8984;49.268;12.302;2023-08-20T11:42:40;5.10;;;3.20;;
17727;SDS011;8984;49.268;12.302;2023-08-20T11:45:10;3.25;;;2.70;;
17727;SDS011;8984;49.268;12.302;2023-08-20T11:47:40;5.50;;;2.97;;
17727;SDS011;8984;49.268;12.302;2023-08-20T11:52:59;4.28;;;3.00;;
17727;SDS011;8984;49.268;12.302;2023-08-20T11:55:29;3.65;;;3.17;;
17727;SDS011;8984;49.268;12.302;2023-08-20T11:57:59;4.38;;;2.53;;
17727;SDS011;8984;49.268;12.302;2023-08-20T12:00:30;3.25;;;2.53;;
17727;SDS011;8984;49.268;12.302;2023-08-20T12:03:07;5.07;;;2.50;;
17727;SDS011;8984;49.268;12.302;2023-08-20T12:05:50;5.38;;;2.78;;
17727;SDS011;8984;49.268;12.302;2023-08-20T12:08:20;4.45;;;2.40;;
17727;SDS011;8984;49.268;12.302;2023-08-20T12:10:51;3.92;;;2.65;;
17727;SDS011;8984;49.268;12.302;2023-08-20T12:13:28;4.15;;;2.70;;
17727;SDS011;8984;49.268;12.302;2023-08-20T12:15:56;3.22;;;2.42;;
17727;SDS011;8984;49.268;12.302;2023-08-20T12:18:27;4.63;;;2.70;;
17727;SDS011;8984;49.268;12.302;2023-08-20T12:20:57;3.10;;;2.50;;
17727;SDS011;8984;49.268;12.302;2023-08-20T12:23:27;5.10;;;3.00;;
17727;SDS011;8984;49.268;12.302;2023-08-20T12:25:57;4.93;;;2.90;;
17727;SDS011;8984;49.268;12.302;2023-08-20T12:28:26;4.20;;;2.72;;
17727;SDS011;8984;49.268;12.302;2023-08-20T12:30:55;4.68;;;2.40;;
17727;SDS011;8984;49.268;12.302;2023-08-20T12:33:31;3.70;;;2.60;;
17727;SDS011;8984;49.268;12.302;2023-08-20T12:36:00;3.80;;;2.78;;
17727;SDS011;8984;49.268;12.302;2023-08-20T12:38:31;3.83;;;2.67;;
17727;SDS011;8984;49.268;12.302;2023-08-20T12:41:02;3.95;;;2.55;;
17727;SDS011;8984;49.268;12.302;2023-08-20T12:43:32;4.60;;;2.88;;
17727;SDS011;8984;49.268;12.302;2023-08-20T12:46:01;5.32;;;2.50;;
17727;SDS011;8984;49.268;12.302;2023-08-20T12:48:32;3.40;;;2.63;;
17727;SDS011;8984;49.268;12.302;2023-08-20T12:51:00;3.00;;;2.25;;
17727;SDS011;8984;49.268;12.302;2023-08-20T12:53:28;4.40;;;2.65;;
17727;SDS011;8984;49.268;12.302;2023-08-20T12:56:02;4.57;;;3.00;;
17727;SDS011;8984;49.268;12.302;2023-08-20T12:58:48;5.60;;;2.65;;
17727;SDS011;8984;49.268;12.302;2023-08-20T13:01:18;4.15;;;2.72;;
17727;SDS011;8984;49.268;12.302;2023-08-20T13:03:55;5.63;;;2.70;;
17727;SDS011;8984;49.268;12.302;2023-08-20T13:06:23;6.93;;;2.88;;
17727;SDS011;8984;49.268;12.302;2023-08-20T13:09:05;4.47;;;2.70;;
17727;SDS011;8984;49.268;12.302;2023-08-20T13:11:34;5.47;;;2.70;;
17727;SDS011;8984;49.268;12.302;2023-08-20T13:14:08;4.63;;;2.60;;
17727;SDS011;8984;49.268;12.302;2023-08-20T13:16:40;4.47;;;2.63;;
17727;SDS011;8984;49.268;12.302;2023-08-20T13:19:13;3.97;;;2.72;;
17727;SDS011;8984;49.268;12.302;2023-08-20T13:21:43;2.65;;;2.40;;
17727;SDS011;8984;49.268;12.302;2023-08-20T13:26:47;5.00;;;2.58;;
17727;SDS011;8984;49.268;12.302;2023-08-20T13:29:14;6.07;;;2.70;;
17727;SDS011;8984;49.268;12.302;2023-08-20T13:31:40;3.97;;;2.72;;
17727;SDS011;8984;49.268;12.302;2023-08-20T13:34:08;5.63;;;2.53;;
17727;SDS011;8984;49.268;12.302;2023-08-20T13:36:37;6.03;;;2.78;;
17727;SDS011;8984;49.268;12.302;2023-08-20T13:39:04;5.97;;;3.05;;
17727;SDS011;8984;49.268;12.302;2023-08-20T13:41:31;3.03;;;2.60;;
17727;SDS011;8984;49.268;12.302;2023-08-20T13:43:58;4.15;;;2.50;;
17727;SDS011;8984;49.268;12.302;2023-08-20T13:46:25;3.78;;;2.70;;
17727;SDS011;8984;49.268;12.302;2023-08-20T13:48:52;3.85;;;3.08;;
17727;SDS011;8984;49.268;12.302;2023-08-20T13:51:19;4.25;;;2.90;;
17727;SDS011;8984;49.268;12.302;2023-08-20T13:53:47;4.65;;;2.55;;
17727;SDS011;8984;49.268;12.302;2023-08-20T13:56:14;3.30;;;2.88;;
17727;SDS011;8984;49.268;12.302;2023-08-20T13:58:42;5.85;;;3.00;;
17727;SDS011;8984;49.268;12.302;2023-08-20T14:01:09;5.05;;;3.03;;
17727;SDS011;8984;49.268;12.302;2023-08-20T14:03:36;5.45;;;3.17;;
17727;SDS011;8984;49.268;12.302;2023-08-20T14:08:36;3.95;;;2.95;;
17727;SDS011;8984;49.268;12.302;2023-08-20T14:11:31;5.18;;;2.90;;
17727;SDS011;8984;49.268;12.302;2023-08-20T14:14:00;2.90;;;2.55;;
17727;SDS011;8984;49.268;12.302;2023-08-20T14:16:31;24.13;;;7.25;;
17727;SDS011;8984;49.268;12.302;2023-08-20T14:19:08;9.20;;;3.97;;
17727;SDS011;8984;49.268;12.302;2023-08-20T14:21:40;9.15;;;4.30;;
17727;SDS011;8984;49.268;12.302;2023-08-20T14:24:14;10.38;;;4.30;;
17727;SDS011;8984;49.268;12.302;2023-08-20T14:29:25;6.18;;;3.22;;
17727;SDS011;8984;49.268;12.302;2023-08-20T14:31:53;4.80;;;3.00;;
17727;SDS011;8984;49.268;12.302;2023-08-20T14:34:24;7.03;;;3.10;;
17727;SDS011;8984;49.268;12.302;2023-08-20T14:36:57;10.40;;;3.42;;
17727;SDS011;8984;49.268;12.302;2023-08-20T14:39:28;8.15;;;3.15;;
17727;SDS011;8984;49.268;12.302;2023-08-20T14:42:03;6.88;;;3.17;;
17727;SDS011;8984;49.268;12.302;2023-08-20T14:44:32;6.38;;;3.15;;
17727;SDS011;8984;49.268;12.302;2023-08-20T14:47:01;4.75;;;2.60;;
17727;SDS011;8984;49.268;12.302;2023-08-20T14:49:37;8.27;;;3.38;;
17727;SDS011;8984;49.268;12.302;2023-08-20T14:52:07;5.55;;;2.95;;
17727;SDS011;8984;49.268;12.302;2023-08-20T14:54:40;4.68;;;2.80;;
17727;SDS011;8984;49.268;12.302;2023-08-20T14:57:10;4.43;;;3.00;;
17727;SDS011;8984;49.268;12.302;2023-08-20T14:59:42;6.35;;;3.25;;
17727;SDS011;8984;49.268;12.302;2023-08-20T15:02:12;4.97;;;3.00;;
17727;SDS011;8984;49.268;12.302;2023-08-20T15:04:47;5.85;;;2.63;;
17727;SDS011;8984;49.268;12.302;2023-08-20T15:07:17;3.22;;;2.67;;
17727;SDS011;8984;49.268;12.302;2023-08-20T15:09:45;6.63;;;3.42;;
17727;SDS011;8984;49.268;12.302;2023-08-20T15:12:20;4.43;;;2.72;;
17727;SDS011;8984;49.268;12.302;2023-08-20T15:14:53;6.05;;;2.90;;
17727;SDS011;8984;49.268;12.302;2023-08-20T15:17:27;3.88;;;2.88;;
17727;SDS011;8984;49.268;12.302;2023-08-20T15:19:59;6.55;;;2.67;;
17727;SDS011;8984;49.268;12.302;2023-08-20T15:22:28;4.20;;;2.55;;
17727;SDS011;8984;49.268;12.302;2023-08-20T15:24:56;7.68;;;2.85;;
17727;SDS011;8984;49.268;12.302;2023-08-20T15:27:39;5.05;;;2.78;;
17727;SDS011;8984;49.268;12.302;2023-08-20T15:30:07;5.47;;;2.60;;
17727;SDS011;8984;49.268;12.302;2023-08-20T15:32:42;5.03;;;2.90;;
17727;SDS011;8984;49.268;12.302;2023-08-20T15:35:10;6.15;;;3.20;;
17727;SDS011;8984;49.268;12.302;2023-08-20T15:37:41;6.55;;;2.60;;
17727;SDS011;8984;49.268;12.302;2023-08-20T15:40:11;7.80;;;2.65;;
17727;SDS011;8984;49.268;12.302;2023-08-20T15:42:45;4.55;;;2.78;;
17727;SDS011;8984;49.268;12.302;2023-08-20T15:45:15;4.13;;;2.80;;
17727;SDS011;8984;49.268;12.302;2023-08-20T15:47:51;4.20;;;2.60;;
17727;SDS011;8984;49.268;12.302;2023-08-20T15:50:28;5.90;;;3.00;;
17727;SDS011;8984;49.268;12.302;2023-08-20T15:52:57;5.68;;;3.08;;
17727;SDS011;8984;49.268;12.302;2023-08-20T15:55:25;3.70;;;2.70;;
17727;SDS011;8984;49.268;12.302;2023-08-20T15:58:19;6.70;;;2.80;;